Time;durP1;ratioP1;P1;durP2;ratioP2;P2;SDS_P1;SDS_P2;PMS_P1;PMS_P2;Temp;Humidity;BMP_temperature;BMP_pressure;BME280_temperature;BME280_humidity;BME280_pressure;Samples;Min_cycle;Max_cycle;Signal;HPM_P1;HPM_P2
2023/06/03 00:00:27;;;;;;;6.97;2.70;;;;;;;;;;4987713;28;20026;-72
2023/06/03 00:02:52;;;;;;;6.18;2.85;;;;;;;;;;4985087;28;20109;-72
2023/06/03 00:05:19;;;;;;;7.65;2.42;;;;;;;;;;4983625;28;20116;-72
2023/06/03 00:07:44;;;;;;;5.55;2.55;;;;;;;;;;4983450;28;20022;-72
2023/06/03 00:10:09;;;;;;;9.82;2.80;;;;;;;;;;4989267;28;20065;-72
2023/06/03 00:12:34;;;;;;;6.20;2.53;;;;;;;;;;4987089;28;20026;-72
2023/06/03 00:15:00;;;;;;;7.27;2.73;;;;;;;;;;4988494;28;20897;-72
2023/06/03 00:17:27;;;;;;;5.38;2.17;;;;;;;;;;4982915;28;20305;-72
2023/06/03 00:19:53;;;;;;;5.35;1.98;;;;;;;;;;4987823;28;20084;-72
2023/06/03 00:22:18;;;;;;;5.95;1.95;;;;;;;;;;4980304;28;20030;-72
2023/06/03 00:24:43;;;;;;;12.02;2.70;;;;;;;;;;4983480;28;20041;-72
2023/06/03 00:27:08;;;;;;;10.67;2.73;;;;;;;;;;4986123;28;20834;-72
2023/06/03 00:29:34;;;;;;;11.40;3.03;;;;;;;;;;4987052;28;20339;-72
2023/06/03 00:31:59;;;;;;;5.60;2.63;;;;;;;;;;4982665;28;20110;-72
2023/06/03 00:34:24;;;;;;;6.47;2.73;;;;;;;;;;4985396;28;20022;-72
2023/06/03 00:36:49;;;;;;;10.80;2.50;;;;;;;;;;4986404;28;20797;-72
2023/06/03 00:39:15;;;;;;;7.60;3.42;;;;;;;;;;4986763;28;20372;-72
2023/06/03 00:41:40;;;;;;;5.88;2.70;;;;;;;;;;4985380;28;20097;-72
2023/06/03 00:44:05;;;;;;;10.10;2.47;;;;;;;;;;4985607;28;20025;-72
2023/06/03 00:46:33;;;;;;;15.50;2.40;;;;;;;;;;4983803;28;20278;-72
2023/06/03 00:48:58;;;;;;;10.90;3.63;;;;;;;;;;4988036;28;20030;-72
2023/06/03 00:51:23;;;;;;;10.20;2.70;;;;;;;;;;4985286;28;20053;-72
2023/06/03 00:53:49;;;;;;;10.32;2.60;;;;;;;;;;4985272;28;20051;-72
2023/06/03 00:56:16;;;;;;;8.65;2.90;;;;;;;;;;4978331;28;20049;-72
2023/06/03 00:58:41;;;;;;;9.32;2.45;;;;;;;;;;4983851;28;20019;-73
2023/06/03 01:01:06;;;;;;;7.68;2.60;;;;;;;;;;4981959;28;20022;-72
2023/06/03 01:03:32;;;;;;;8.45;2.60;;;;;;;;;;4975491;28;20053;-72
2023/06/03 01:06:06;;;;;;;7.40;2.72;;;;;;;;;;4978055;28;20022;-72
2023/06/03 01:08:38;;;;;;;9.57;3.20;;;;;;;;;;4984594;28;20040;-72
2023/06/03 01:11:16;;;;;;;11.27;2.60;;;;;;;;;;4987090;28;20015;-72
2023/06/03 01:13:50;;;;;;;11.18;2.53;;;;;;;;;;4981604;28;20063;-72
2023/06/03 01:16:17;;;;;;;7.10;2.47;;;;;;;;;;4985141;28;20093;-72
2023/06/03 01:18:42;;;;;;;3.67;2.03;;;;;;;;;;4979843;28;20053;-73
2023/06/03 01:21:08;;;;;;;9.10;2.70;;;;;;;;;;4981257;28;20076;-73
2023/06/03 01:23:33;;;;;;;5.68;2.88;;;;;;;;;;4982598;28;20022;-72
2023/06/03 01:26:00;;;;;;;8.35;3.45;;;;;;;;;;4981375;28;20036;-73
2023/06/03 01:28:27;;;;;;;11.50;2.78;;;;;;;;;;4982728;28;20030;-72
2023/06/03 01:30:53;;;;;;;6.43;2.25;;;;;;;;;;4984712;28;20108;-73
2023/06/03 01:33:19;;;;;;;7.82;2.75;;;;;;;;;;4983566;28;20030;-73
2023/06/03 01:35:44;;;;;;;6.05;3.08;;;;;;;;;;4982963;28;20019;-73
2023/06/03 01:38:10;;;;;;;10.45;2.95;;;;;;;;;;4979383;28;20019;-73
2023/06/03 01:40:35;;;;;;;10.05;2.50;;;;;;;;;;4987467;28;20018;-73
2023/06/03 01:43:00;;;;;;;11.32;3.97;;;;;;;;;;4982005;28;20023;-73
2023/06/03 01:45:25;;;;;;;11.50;2.30;;;;;;;;;;4981697;28;20081;-72
2023/06/03 01:47:51;;;;;;;9.63;2.57;;;;;;;;;;4988327;28;20024;-72
2023/06/03 01:50:17;;;;;;;4.20;2.10;;;;;;;;;;4984803;28;20320;-72
2023/06/03 01:52:42;;;;;;;7.80;2.53;;;;;;;;;;4987184;28;20417;-72
2023/06/03 01:55:08;;;;;;;8.77;2.33;;;;;;;;;;4983162;28;20527;-72
2023/06/03 01:57:33;;;;;;;9.10;2.70;;;;;;;;;;4983904;28;20182;-73
2023/06/03 01:59:58;;;;;;;10.83;2.87;;;;;;;;;;4987547;28;20440;-73
2023/06/03 02:02:23;;;;;;;7.65;2.42;;;;;;;;;;4986640;28;20277;-73
2023/06/03 02:04:49;;;;;;;5.70;3.05;;;;;;;;;;4987697;28;20026;-72
2023/06/03 02:07:14;;;;;;;10.00;2.60;;;;;;;;;;4985876;28;20018;-73
2023/06/03 02:09:39;;;;;;;8.50;2.70;;;;;;;;;;4987805;28;20667;-72
2023/06/03 02:12:05;;;;;;;12.85;2.35;;;;;;;;;;4985202;28;20297;-73
2023/06/03 02:14:34;;;;;;;5.60;2.50;;;;;;;;;;4984418;28;20422;-73
2023/06/03 02:17:00;;;;;;;8.75;2.67;;;;;;;;;;4986412;28;20023;-73
2023/06/03 02:19:26;;;;;;;10.70;3.50;;;;;;;;;;4983211;28;20046;-73
2023/06/03 02:21:52;;;;;;;12.73;2.40;;;;;;;;;;4986355;28;20018;-72
2023/06/03 02:24:18;;;;;;;11.43;2.58;;;;;;;;;;4985560;28;20027;-72
2023/06/03 02:26:54;;;;;;;10.48;2.33;;;;;;;;;;4982272;28;20499;-72
2023/06/03 02:29:19;;;;;;;8.85;2.58;;;;;;;;;;4980749;28;20030;-72
2023/06/03 02:31:46;;;;;;;7.97;2.35;;;;;;;;;;4985162;28;20027;-72
2023/06/03 02:34:11;;;;;;;15.82;3.05;;;;;;;;;;4984254;28;20657;-73
2023/06/03 02:36:38;;;;;;;6.53;2.50;;;;;;;;;;4986751;28;20054;-73
2023/06/03 02:39:03;;;;;;;13.13;2.40;;;;;;;;;;4988727;28;20026;-72
2023/06/03 02:41:30;;;;;;;7.50;2.80;;;;;;;;;;4986466;28;20034;-73
2023/06/03 02:43:55;;;;;;;7.57;3.47;;;;;;;;;;4985992;28;20270;-73
2023/06/03 02:46:20;;;;;;;9.25;2.63;;;;;;;;;;4989441;28;20033;-72
2023/06/03 02:48:45;;;;;;;11.30;2.60;;;;;;;;;;4986938;28;20373;-72
2023/06/03 02:51:10;;;;;;;7.50;2.58;;;;;;;;;;4987954;28;20272;-72
2023/06/03 02:53:36;;;;;;;12.27;3.07;;;;;;;;;;4988591;28;20018;-72
2023/06/03 02:56:01;;;;;;;9.57;2.67;;;;;;;;;;4986857;28;20269;-72
2023/06/03 02:58:26;;;;;;;7.10;2.60;;;;;;;;;;4983858;28;20329;-72
2023/06/03 03:00:51;;;;;;;7.60;2.50;;;;;;;;;;4988476;28;20311;-72
2023/06/03 03:03:17;;;;;;;6.03;2.05;;;;;;;;;;4981735;28;20041;-72
2023/06/03 03:05:42;;;;;;;5.70;2.95;;;;;;;;;;4986228;28;20428;-72
2023/06/03 03:08:08;;;;;;;5.47;2.10;;;;;;;;;;4988527;28;20022;-72
2023/06/03 03:10:33;;;;;;;5.63;2.20;;;;;;;;;;4987591;28;20380;-72
2023/06/03 03:12:58;;;;;;;4.67;2.40;;;;;;;;;;4988111;28;20030;-73
2023/06/03 03:15:23;;;;;;;4.30;2.67;;;;;;;;;;4982973;28;20839;-73
2023/06/03 03:17:49;;;;;;;6.53;2.00;;;;;;;;;;4984583;28;20261;-73
2023/06/03 03:20:14;;;;;;;3.80;2.05;;;;;;;;;;4986446;28;20022;-73
2023/06/03 03:22:39;;;;;;;9.65;2.22;;;;;;;;;;4983619;28;20019;-73
2023/06/03 03:25:05;;;;;;;4.22;1.60;;;;;;;;;;4981878;28;20069;-72
2023/06/03 03:27:30;;;;;;;9.25;2.40;;;;;;;;;;4991212;28;20014;-72
2023/06/03 03:29:57;;;;;;;5.28;2.42;;;;;;;;;;4983496;28;20023;-73
2023/06/03 03:32:23;;;;;;;4.75;1.98;;;;;;;;;;4984982;28;20077;-73
2023/06/03 03:34:53;;;;;;;5.00;1.80;;;;;;;;;;4974615;28;20045;-72
2023/06/03 03:37:18;;;;;;;5.32;2.20;;;;;;;;;;4982682;28;20481;-72
2023/06/03 03:39:43;;;;;;;9.95;2.10;;;;;;;;;;4983828;28;20080;-72
2023/06/03 03:42:08;;;;;;;4.72;1.55;;;;;;;;;;4983245;28;20018;-72
2023/06/03 03:44:34;;;;;;;3.17;1.58;;;;;;;;;;4981404;28;20019;-72
2023/06/03 03:47:00;;;;;;;2.92;1.42;;;;;;;;;;4979801;28;20652;-73
2023/06/03 03:49:30;;;;;;;13.32;2.17;;;;;;;;;;4981742;28;20106;-71
2023/06/03 03:51:56;;;;;;;6.80;1.67;;;;;;;;;;4977597;28;20413;-72
2023/06/03 03:54:23;;;;;;;4.68;1.92;;;;;;;;;;4978067;28;20019;-73
2023/06/03 03:56:52;;;;;;;3.55;1.67;;;;;;;;;;4986846;28;20131;-73
2023/06/03 03:59:17;;;;;;;8.18;1.85;;;;;;;;;;4986208;28;20019;-73
2023/06/03 04:01:43;;;;;;;8.10;1.70;;;;;;;;;;4985051;28;20447;-73
2023/06/03 04:04:10;;;;;;;4.57;1.60;;;;;;;;;;4984582;28;20292;-72
2023/06/03 04:06:38;;;;;;;4.43;1.85;;;;;;;;;;4981432;28;20022;-72
2023/06/03 04:09:06;;;;;;;8.85;1.83;;;;;;;;;;4983948;28;20031;-73
2023/06/03 04:11:36;;;;;;;4.03;1.73;;;;;;;;;;4977999;28;20118;-72
2023/06/03 04:14:01;;;;;;;3.93;1.70;;;;;;;;;;4976448;28;20420;-72
2023/06/03 04:16:45;;;;;;;4.55;1.67;;;;;;;;;;4979350;28;20027;-73
2023/06/03 04:19:12;;;;;;;5.05;1.50;;;;;;;;;;4979996;28;20018;-73
2023/06/03 04:21:38;;;;;;;4.97;2.33;;;;;;;;;;4982019;28;20042;-73
2023/06/03 04:24:06;;;;;;;7.55;1.35;;;;;;;;;;4979886;28;20057;-72
2023/06/03 04:26:31;;;;;;;5.93;1.38;;;;;;;;;;4980554;28;20026;-72
2023/06/03 04:28:56;;;;;;;7.60;1.47;;;;;;;;;;4983685;28;20018;-73
2023/06/03 04:31:21;;;;;;;3.60;0.90;;;;;;;;;;4978660;28;20269;-72
2023/06/03 04:33:47;;;;;;;2.77;1.37;;;;;;;;;;4983228;28;20285;-72
2023/06/03 04:36:12;;;;;;;3.35;1.30;;;;;;;;;;4982141;28;20291;-73
2023/06/03 04:38:38;;;;;;;4.07;1.47;;;;;;;;;;4984492;28;20038;-72
2023/06/03 04:41:03;;;;;;;5.30;1.38;;;;;;;;;;4984295;28;20297;-72
2023/06/03 04:43:29;;;;;;;5.47;1.35;;;;;;;;;;4985659;28;20447;-73
2023/06/03 04:45:55;;;;;;;5.90;1.60;;;;;;;;;;4983546;28;20393;-72
2023/06/03 04:48:22;;;;;;;4.07;1.40;;;;;;;;;;4983846;28;20049;-72
2023/06/03 04:50:47;;;;;;;3.33;1.30;;;;;;;;;;4987074;28;20040;-72
2023/06/03 04:53:13;;;;;;;2.78;1.02;;;;;;;;;;4985657;28;20547;-72
2023/06/03 04:55:43;;;;;;;2.63;0.90;;;;;;;;;;4988794;28;20101;-73
2023/06/03 04:58:09;;;;;;;3.17;1.10;;;;;;;;;;4986884;28;20760;-73
2023/06/03 05:00:34;;;;;;;3.75;1.05;;;;;;;;;;4986383;28;20026;-72
2023/06/03 05:02:59;;;;;;;4.18;1.13;;;;;;;;;;4984054;28;20061;-73
2023/06/03 05:05:25;;;;;;;8.30;1.33;;;;;;;;;;4979174;28;20031;-72
2023/06/03 05:07:51;;;;;;;3.78;1.15;;;;;;;;;;4979353;28;20171;-73
2023/06/03 05:10:16;;;;;;;5.60;1.02;;;;;;;;;;4984841;28;20023;-73
2023/06/03 05:12:41;;;;;;;4.60;0.90;;;;;;;;;;4985584;28;20149;-73
2023/06/03 05:15:07;;;;;;;5.10;1.07;;;;;;;;;;4990853;28;20149;-72
2023/06/03 05:17:32;;;;;;;2.47;0.93;;;;;;;;;;4984847;28;20308;-73
2023/06/03 05:19:57;;;;;;;6.13;1.10;;;;;;;;;;4968447;28;20025;-72
2023/06/03 05:22:23;;;;;;;2.83;1.17;;;;;;;;;;4980738;28;20277;-73
2023/06/03 05:24:48;;;;;;;2.30;1.00;;;;;;;;;;4981298;28;20093;-73
2023/06/03 05:27:13;;;;;;;5.20;1.17;;;;;;;;;;4987291;28;20281;-72
2023/06/03 05:29:39;;;;;;;2.17;1.33;;;;;;;;;;4980288;28;20054;-73
2023/06/03 05:32:04;;;;;;;13.85;2.25;;;;;;;;;;4992942;28;20290;-73
2023/06/03 05:34:29;;;;;;;3.97;1.20;;;;;;;;;;4984883;28;20018;-72
2023/06/03 05:36:54;;;;;;;6.63;1.03;;;;;;;;;;4985648;28;20366;-73
2023/06/03 05:39:20;;;;;;;6.50;1.10;;;;;;;;;;4986650;28;20272;-73
2023/06/03 05:41:45;;;;;;;4.72;1.10;;;;;;;;;;4984660;28;20763;-73
2023/06/03 05:44:10;;;;;;;4.47;1.77;;;;;;;;;;4986992;28;20027;-72
2023/06/03 05:46:35;;;;;;;3.23;1.00;;;;;;;;;;4981666;28;20936;-73
2023/06/03 05:49:00;;;;;;;1.23;0.53;;;;;;;;;;4985829;28;20296;-73
2023/06/03 05:51:26;;;;;;;3.95;1.05;;;;;;;;;;4984594;28;20286;-73
2023/06/03 05:53:51;;;;;;;5.43;0.70;;;;;;;;;;4983149;28;20024;-72
2023/06/03 05:56:16;;;;;;;1.93;0.80;;;;;;;;;;4984829;28;20281;-72
2023/06/03 05:58:43;;;;;;;3.67;1.42;;;;;;;;;;4978841;28;20027;-72
2023/06/03 06:01:08;;;;;;;3.15;0.75;;;;;;;;;;4977575;28;20022;-73
2023/06/03 06:03:33;;;;;;;3.40;0.70;;;;;;;;;;4982822;28;20121;-73
2023/06/03 06:06:00;;;;;;;3.27;1.00;;;;;;;;;;4985383;28;20054;-72
2023/06/03 06:08:26;;;;;;;8.02;1.23;;;;;;;;;;4979410;28;20788;-72
2023/06/03 06:10:51;;;;;;;7.80;1.23;;;;;;;;;;4980545;28;20074;-72
2023/06/03 06:13:16;;;;;;;3.63;1.10;;;;;;;;;;4984828;28;20477;-73
2023/06/03 06:15:56;;;;;;;8.83;1.10;;;;;;;;;;4986395;28;20561;-72
2023/06/03 06:18:24;;;;;;;4.17;1.00;;;;;;;;;;4985768;28;20284;-73
2023/06/03 06:20:49;;;;;;;2.17;0.80;;;;;;;;;;4977694;28;20771;-73
2023/06/03 06:23:15;;;;;;;6.18;0.82;;;;;;;;;;4984455;28;20097;-73
2023/06/03 06:25:40;;;;;;;13.02;0.90;;;;;;;;;;4988318;28;20105;-73
2023/06/03 06:28:05;;;;;;;9.20;0.90;;;;;;;;;;4979439;28;20369;-72
2023/06/03 06:30:31;;;;;;;3.78;0.70;;;;;;;;;;4978494;28;20298;-73
2023/06/03 06:32:56;;;;;;;8.85;1.23;;;;;;;;;;4982665;28;20354;-73
2023/06/03 06:35:24;;;;;;;3.53;0.90;;;;;;;;;;4984262;28;20026;-73
2023/06/03 06:37:49;;;;;;;5.07;1.17;;;;;;;;;;4982506;28;20277;-73
2023/06/03 06:40:18;;;;;;;1.10;0.70;;;;;;;;;;4991082;28;20481;-73
2023/06/03 06:42:43;;;;;;;6.47;0.85;;;;;;;;;;4985104;28;20281;-73
2023/06/03 06:45:30;;;;;;;11.07;1.07;;;;;;;;;;4979093;28;20073;-73
2023/06/03 06:48:04;;;;;;;4.25;1.00;;;;;;;;;;4980697;28;20412;-72
2023/06/03 06:50:34;;;;;;;2.53;0.90;;;;;;;;;;4979348;28;20026;-73
2023/06/03 06:53:00;;;;;;;4.53;1.02;;;;;;;;;;4982726;28;20034;-72
2023/06/03 06:55:48;;;;;;;6.88;0.93;;;;;;;;;;4988471;28;20031;-73
2023/06/03 06:58:14;;;;;;;1.92;0.95;;;;;;;;;;4974001;28;20050;-72
2023/06/03 07:00:39;;;;;;;2.92;0.82;;;;;;;;;;4987961;28;20015;-72
2023/06/03 07:03:12;;;;;;;3.80;1.10;;;;;;;;;;4988211;28;20101;-73
2023/06/03 07:05:37;;;;;;;1.67;0.90;;;;;;;;;;4975309;28;20418;-73
2023/06/03 07:08:03;;;;;;;4.50;1.00;;;;;;;;;;4989874;28;20062;-72
2023/06/03 07:10:28;;;;;;;5.35;0.77;;;;;;;;;;4982642;28;20325;-73
2023/06/03 07:12:55;;;;;;;3.90;1.13;;;;;;;;;;4981162;28;20023;-72
2023/06/03 07:15:20;;;;;;;3.55;1.00;;;;;;;;;;4982736;28;20100;-73
2023/06/03 07:17:49;;;;;;;2.67;1.10;;;;;;;;;;4984218;28;20069;-72
2023/06/03 07:20:35;;;;;;;3.42;1.10;;;;;;;;;;4982462;28;20317;-73
2023/06/03 07:23:01;;;;;;;3.42;0.98;;;;;;;;;;4979930;28;20034;-72
2023/06/03 07:25:42;;;;;;;2.97;0.70;;;;;;;;;;4984008;28;20396;-73
2023/06/03 07:28:10;;;;;;;7.05;1.35;;;;;;;;;;4985047;28;20121;-72
2023/06/03 07:30:36;;;;;;;1.42;0.80;;;;;;;;;;4983035;28;20018;-73
2023/06/03 07:33:01;;;;;;;5.38;1.88;;;;;;;;;;4983867;28;20025;-73
2023/06/03 07:35:27;;;;;;;2.75;0.88;;;;;;;;;;4990551;28;20389;-73
2023/06/03 07:37:52;;;;;;;3.45;1.30;;;;;;;;;;4983556;28;20023;-73
2023/06/03 07:40:17;;;;;;;4.93;1.53;;;;;;;;;;4985586;28;20026;-72
2023/06/03 07:42:44;;;;;;;5.23;0.93;;;;;;;;;;4986274;28;20273;-73
2023/06/03 07:45:11;;;;;;;6.03;1.30;;;;;;;;;;4986473;28;20879;-73
2023/06/03 07:47:36;;;;;;;2.70;1.20;;;;;;;;;;4981355;28;20511;-73
2023/06/03 07:50:02;;;;;;;16.50;2.77;;;;;;;;;;4984700;28;20022;-74
2023/06/03 07:52:34;;;;;;;4.93;0.90;;;;;;;;;;4977977;28;20037;-73
2023/06/03 07:55:00;;;;;;;7.25;1.23;;;;;;;;;;4983694;28;20033;-74
2023/06/03 07:57:25;;;;;;;13.95;1.58;;;;;;;;;;4987505;28;20225;-74
2023/06/03 07:59:52;;;;;;;6.23;1.00;;;;;;;;;;4976806;28;20022;-73
2023/06/03 08:02:17;;;;;;;6.90;1.25;;;;;;;;;;4981292;28;20092;-73
2023/06/03 08:04:42;;;;;;;7.93;1.20;;;;;;;;;;4983347;28;20030;-74
2023/06/03 08:07:07;;;;;;;2.47;1.02;;;;;;;;;;4986302;28;20555;-73
2023/06/03 08:09:33;;;;;;;6.63;1.20;;;;;;;;;;4980253;28;20428;-73
2023/06/03 08:12:00;;;;;;;3.75;1.10;;;;;;;;;;4980493;28;20031;-73
2023/06/03 08:14:25;;;;;;;15.75;1.23;;;;;;;;;;4977437;28;20374;-73
2023/06/03 08:16:51;;;;;;;10.73;1.38;;;;;;;;;;4987832;28;20020;-73
2023/06/03 08:19:16;;;;;;;4.60;1.10;;;;;;;;;;4982667;28;20037;-73
2023/06/03 08:21:41;;;;;;;4.28;1.08;;;;;;;;;;4987128;28;20022;-73
2023/06/03 08:24:08;;;;;;;9.47;1.60;;;;;;;;;;4986534;28;21847;-73
2023/06/03 08:26:35;;;;;;;4.88;0.90;;;;;;;;;;4983001;28;20049;-73
2023/06/03 08:29:01;;;;;;;13.00;2.95;;;;;;;;;;4987156;28;20500;-73
2023/06/03 08:31:26;;;;;;;3.80;0.97;;;;;;;;;;4982647;28;20050;-73
2023/06/03 08:33:51;;;;;;;4.13;0.80;;;;;;;;;;4983308;28;20022;-73
2023/06/03 08:36:17;;;;;;;8.47;2.40;;;;;;;;;;4987248;28;20348;-73
2023/06/03 08:38:42;;;;;;;10.38;1.67;;;;;;;;;;4985738;28;20023;-73
2023/06/03 08:41:08;;;;;;;6.22;1.17;;;;;;;;;;4986575;28;20074;-73
2023/06/03 08:43:36;;;;;;;3.28;1.48;;;;;;;;;;4985952;28;20018;-73
2023/06/03 08:46:17;;;;;;;6.05;2.55;;;;;;;;;;4987379;28;20385;-73
2023/06/03 08:48:46;;;;;;;11.57;1.58;;;;;;;;;;4985271;28;20031;-73
2023/06/03 08:51:13;;;;;;;7.88;1.33;;;;;;;;;;4985710;28;20030;-73
2023/06/03 08:53:47;;;;;;;3.65;1.30;;;;;;;;;;4983524;28;20042;-73
2023/06/03 08:56:13;;;;;;;4.45;0.80;;;;;;;;;;4989393;28;20029;-73
2023/06/03 08:58:43;;;;;;;4.38;1.42;;;;;;;;;;4983961;28;20027;-73
2023/06/03 09:01:10;;;;;;;8.65;2.22;;;;;;;;;;4986842;28;20014;-73
2023/06/03 09:03:36;;;;;;;12.68;1.60;;;;;;;;;;4981228;28;20034;-73
2023/06/03 09:06:02;;;;;;;7.38;1.38;;;;;;;;;;4983332;28;20023;-73
2023/06/03 09:08:27;;;;;;;1.50;0.90;;;;;;;;;;4986611;28;20034;-73
2023/06/03 09:10:53;;;;;;;3.35;1.17;;;;;;;;;;4986705;28;20526;-73
2023/06/03 09:13:19;;;;;;;6.32;1.55;;;;;;;;;;4982648;28;20030;-73
2023/06/03 09:15:45;;;;;;;10.63;1.25;;;;;;;;;;4986726;28;20054;-73
2023/06/03 09:18:13;;;;;;;10.18;1.58;;;;;;;;;;4985245;28;20018;-73
2023/06/03 09:20:38;;;;;;;1.00;0.73;;;;;;;;;;4982918;28;20374;-73
2023/06/03 09:23:03;;;;;;;11.90;1.23;;;;;;;;;;4982600;28;20037;-73
2023/06/03 09:25:29;;;;;;;3.83;1.52;;;;;;;;;;4984009;28;20057;-72
2023/06/03 09:27:54;;;;;;;4.80;1.80;;;;;;;;;;4981037;28;20077;-73
2023/06/03 09:30:19;;;;;;;6.93;1.83;;;;;;;;;;4981462;28;20517;-73
2023/06/03 09:32:45;;;;;;;4.53;1.55;;;;;;;;;;4980681;28;20074;-73
2023/06/03 09:35:10;;;;;;;2.90;1.67;;;;;;;;;;4986332;28;20109;-73
2023/06/03 09:37:36;;;;;;;2.53;1.15;;;;;;;;;;4991161;28;20045;-73
2023/06/03 09:40:03;;;;;;;2.88;1.10;;;;;;;;;;4988553;28;20023;-73
2023/06/03 09:42:41;;;;;;;2.30;1.10;;;;;;;;;;4988061;28;20108;-73
2023/06/03 09:45:07;;;;;;;2.90;1.50;;;;;;;;;;4974365;28;20412;-73
2023/06/03 09:47:36;;;;;;;3.28;1.48;;;;;;;;;;4974249;28;20106;-73
2023/06/03 09:50:06;;;;;;;4.70;1.42;;;;;;;;;;4978399;28;20022;-73
2023/06/03 09:52:31;;;;;;;;;;;;;;;;;;4989114;28;20061;-73
2023/06/03 09:55:00;;;;;;;5.00;2.03;;;;;;;;;;4985174;28;19986;-73
2023/06/03 09:57:26;;;;;;;5.80;1.23;;;;;;;;;;4988971;28;20023;-73
2023/06/03 10:00:02;;;;;;;5.80;0.90;;;;;;;;;;4982998;28;20037;-73
2023/06/03 10:02:27;;;;;;;8.35;2.47;;;;;;;;;;4979966;28;20034;-73
2023/06/03 10:04:53;;;;;;;8.93;1.80;;;;;;;;;;4966516;28;20143;-74
2023/06/03 10:07:18;;;;;;;7.55;1.60;;;;;;;;;;4982878;28;20284;-73
2023/06/03 10:09:47;;;;;;;7.13;1.23;;;;;;;;;;4978551;28;20027;-73
2023/06/03 10:12:16;;;;;;;4.35;1.58;;;;;;;;;;4980888;28;20030;-73
2023/06/03 10:14:47;;;;;;;2.63;1.35;;;;;;;;;;4982099;28;20015;-74
2023/06/03 10:17:14;;;;;;;2.42;1.48;;;;;;;;;;4979415;28;20054;-73
2023/06/03 10:19:40;;;;;;;13.02;1.80;;;;;;;;;;4984170;28;20073;-73
2023/06/03 10:22:06;;;;;;;5.72;1.42;;;;;;;;;;4986974;28;20026;-73
2023/06/03 10:24:33;;;;;;;7.82;1.63;;;;;;;;;;4983775;28;20081;-73
2023/06/03 10:26:58;;;;;;;7.55;1.45;;;;;;;;;;4982100;28;20054;-73
2023/06/03 10:29:24;;;;;;;5.82;1.45;;;;;;;;;;4982116;28;20061;-73
2023/06/03 10:31:53;;;;;;;3.42;1.38;;;;;;;;;;4986079;28;20026;-73
2023/06/03 10:34:18;;;;;;;4.20;1.60;;;;;;;;;;4981038;28;20018;-73
2023/06/03 10:36:44;;;;;;;2.53;1.33;;;;;;;;;;4981936;28;20385;-73
2023/06/03 10:39:12;;;;;;;7.00;1.80;;;;;;;;;;4985908;28;20026;-73
2023/06/03 10:41:38;;;;;;;3.80;1.45;;;;;;;;;;4983865;28;20022;-73
2023/06/03 10:44:03;;;;;;;5.00;1.45;;;;;;;;;;4984700;28;20026;-73
2023/06/03 10:46:28;;;;;;;5.43;1.60;;;;;;;;;;4980386;28;20069;-73
2023/06/03 10:48:54;;;;;;;3.60;1.57;;;;;;;;;;4986785;28;20435;-73
2023/06/03 10:51:33;;;;;;;4.22;1.67;;;;;;;;;;4991161;28;20072;-73
2023/06/03 10:54:07;;;;;;;3.15;1.80;;;;;;;;;;4985513;28;20026;-74
2023/06/03 10:56:37;;;;;;;5.63;1.42;;;;;;;;;;4983239;28;20118;-73
2023/06/03 10:59:03;;;;;;;12.57;1.50;;;;;;;;;;4985608;28;20551;-73
2023/06/03 11:01:47;;;;;;;6.03;1.27;;;;;;;;;;4990912;28;20493;-73
2023/06/03 11:04:16;;;;;;;5.38;1.55;;;;;;;;;;4984820;28;20440;-73
2023/06/03 11:06:41;;;;;;;4.75;1.42;;;;;;;;;;4991961;28;20042;-73
2023/06/03 11:09:09;;;;;;;12.18;2.90;;;;;;;;;;4990245;28;20061;-73
2023/06/03 11:11:40;;;;;;;7.85;1.60;;;;;;;;;;4985511;28;20014;-73
2023/06/03 11:14:06;;;;;;;4.55;1.33;;;;;;;;;;4983803;28;20023;-73
2023/06/03 11:16:51;;;;;;;8.55;1.58;;;;;;;;;;4990720;28;20037;-73
2023/06/03 11:19:26;;;;;;;4.40;1.52;;;;;;;;;;4985720;28;20069;-73
2023/06/03 11:21:52;;;;;;;7.95;1.50;;;;;;;;;;4991014;28;20038;-73
2023/06/03 11:24:36;;;;;;;3.07;1.47;;;;;;;;;;4991851;28;20068;-73
2023/06/03 11:27:01;;;;;;;3.17;1.50;;;;;;;;;;4991615;28;20018;-73
2023/06/03 11:29:45;;;;;;;6.17;1.87;;;;;;;;;;4988679;28;20018;-73
2023/06/03 11:32:11;;;;;;;7.80;1.77;;;;;;;;;;4983799;28;20030;-73
2023/06/03 11:34:36;;;;;;;4.60;1.42;;;;;;;;;;4985443;28;20018;-73
2023/06/03 11:37:01;;;;;;;3.90;1.53;;;;;;;;;;4972853;28;20017;-72
2023/06/03 11:39:26;;;;;;;1.90;1.40;;;;;;;;;;4982239;28;20015;-73
2023/06/03 11:42:06;;;;;;;3.10;1.10;;;;;;;;;;4984071;28;20040;-73
2023/06/03 11:44:31;;;;;;;4.90;1.50;;;;;;;;;;4971695;28;20262;-73
2023/06/03 11:46:57;;;;;;;5.93;1.38;;;;;;;;;;4977673;28;20620;-73
2023/06/03 11:49:22;;;;;;;4.90;1.33;;;;;;;;;;4985904;28;20096;-73
2023/06/03 11:51:49;;;;;;;9.85;1.48;;;;;;;;;;4984382;28;20257;-72
2023/06/03 11:54:16;;;;;;;9.70;1.63;;;;;;;;;;4971806;28;20046;-73
2023/06/03 11:56:44;;;;;;;6.32;1.45;;;;;;;;;;4971288;28;20477;-73
2023/06/03 11:59:10;;;;;;;3.50;1.20;;;;;;;;;;4978456;28;20057;-73
2023/06/03 12:01:36;;;;;;;5.15;1.95;;;;;;;;;;4985696;28;20034;-74
2023/06/03 12:04:01;;;;;;;6.13;1.50;;;;;;;;;;4985725;28;20017;-73
2023/06/03 12:06:33;;;;;;;3.33;1.45;;;;;;;;;;4971581;28;20015;-73
2023/06/03 12:08:58;;;;;;;4.22;1.42;;;;;;;;;;4973493;28;20069;-73
2023/06/03 12:11:30;;;;;;;4.60;1.53;;;;;;;;;;4984631;28;20026;-73
2023/06/03 12:13:56;;;;;;;11.05;1.42;;;;;;;;;;4955718;28;20045;-73
2023/06/03 12:16:39;;;;;;;6.65;1.67;;;;;;;;;;4985270;28;20424;-73
2023/06/03 12:19:05;;;;;;;4.05;1.30;;;;;;;;;;4989709;28;20026;-73
2023/06/03 12:21:32;;;;;;;3.13;1.33;;;;;;;;;;4986328;28;20098;-73
2023/06/03 12:23:57;;;;;;;4.60;1.30;;;;;;;;;;4989558;28;20023;-73
2023/06/03 12:26:24;;;;;;;3.40;1.40;;;;;;;;;;4990787;28;20026;-73
2023/06/03 12:28:49;;;;;;;6.72;1.40;;;;;;;;;;4991040;28;20428;-73
2023/06/03 12:31:15;;;;;;;5.47;1.57;;;;;;;;;;4986621;28;20019;-73
2023/06/03 12:33:40;;;;;;;4.13;1.15;;;;;;;;;;4983339;28;20288;-73
2023/06/03 12:36:06;;;;;;;4.22;1.17;;;;;;;;;;4985210;28;20408;-73
2023/06/03 12:38:32;;;;;;;7.43;1.40;;;;;;;;;;4989828;28;20033;-73
2023/06/03 12:41:09;;;;;;;3.70;1.70;;;;;;;;;;4990604;28;20019;-73
2023/06/03 12:43:34;;;;;;;2.88;1.13;;;;;;;;;;4990616;28;20257;-73
2023/06/03 12:46:16;;;;;;;2.63;1.10;;;;;;;;;;4984291;28;20028;-73
2023/06/03 12:48:42;;;;;;;6.43;1.15;;;;;;;;;;4985614;28;20301;-73
2023/06/03 12:51:28;;;;;;;3.88;1.65;;;;;;;;;;4983962;28;20497;-73
2023/06/03 12:53:55;;;;;;;3.05;1.65;;;;;;;;;;4978527;28;20018;-73
2023/06/03 12:56:20;;;;;;;12.38;1.15;;;;;;;;;;4982423;28;20037;-73
2023/06/03 12:58:46;;;;;;;4.93;1.30;;;;;;;;;;4984576;28;20018;-73
2023/06/03 13:01:11;;;;;;;4.68;1.35;;;;;;;;;;4975863;28;20166;-73
2023/06/03 13:03:37;;;;;;;4.13;1.43;;;;;;;;;;4984309;28;20030;-74
2023/06/03 13:06:02;;;;;;;2.10;1.30;;;;;;;;;;4984631;28;20440;-73
2023/06/03 13:08:27;;;;;;;2.58;1.23;;;;;;;;;;4986991;28;20018;-74
2023/06/03 13:10:52;;;;;;;8.60;1.23;;;;;;;;;;4988314;28;20022;-74
2023/06/03 13:13:18;;;;;;;4.90;1.50;;;;;;;;;;4991872;28;20054;-73
2023/06/03 13:15:44;;;;;;;3.03;1.20;;;;;;;;;;4993820;28;20026;-74
2023/06/03 13:18:09;;;;;;;6.10;1.42;;;;;;;;;;4993986;28;20022;-74
2023/06/03 13:20:34;;;;;;;2.67;1.03;;;;;;;;;;4989183;28;20061;-74
2023/06/03 13:22:59;;;;;;;8.32;1.35;;;;;;;;;;4988037;28;20030;-74
2023/06/03 13:25:24;;;;;;;3.63;1.33;;;;;;;;;;4987103;28;20038;-74
2023/06/03 13:27:50;;;;;;;1.90;0.90;;;;;;;;;;4985198;28;20092;-74
2023/06/03 13:30:15;;;;;;;4.43;1.50;;;;;;;;;;4979237;28;20022;-74
2023/06/03 13:32:40;;;;;;;2.88;1.20;;;;;;;;;;4974143;28;20286;-74
2023/06/03 13:35:06;;;;;;;3.20;1.55;;;;;;;;;;4988650;28;20023;-74
2023/06/03 13:37:31;;;;;;;4.40;1.27;;;;;;;;;;4988422;28;20011;-73
2023/06/03 13:39:56;;;;;;;17.63;1.67;;;;;;;;;;4975360;28;20030;-74
2023/06/03 13:42:22;;;;;;;7.60;1.30;;;;;;;;;;4974006;28;20027;-74
2023/06/03 13:44:47;;;;;;;5.77;1.50;;;;;;;;;;4987447;28;20030;-74
2023/06/03 13:47:12;;;;;;;4.90;1.08;;;;;;;;;;4984312;28;20281;-74
2023/06/03 13:49:37;;;;;;;5.57;1.33;;;;;;;;;;4982414;28;20025;-73
2023/06/03 13:52:03;;;;;;;5.77;1.40;;;;;;;;;;4988312;28;20152;-73
2023/06/03 13:54:28;;;;;;;2.00;0.90;;;;;;;;;;4990872;28;20056;-74
2023/06/03 13:56:54;;;;;;;4.68;1.27;;;;;;;;;;4991746;28;20014;-74
2023/06/03 13:59:23;;;;;;;3.15;1.17;;;;;;;;;;4986065;28;20059;-74
2023/06/03 14:01:48;;;;;;;2.08;1.05;;;;;;;;;;4986256;28;20022;-74
2023/06/03 14:04:14;;;;;;;4.22;1.00;;;;;;;;;;4986467;28;20489;-74
2023/06/03 14:06:39;;;;;;;3.13;1.10;;;;;;;;;;4973531;28;20015;-73
2023/06/03 14:09:05;;;;;;;3.83;1.02;;;;;;;;;;4983052;28;20052;-73
2023/06/03 14:11:30;;;;;;;6.32;0.98;;;;;;;;;;4982738;28;20477;-74
2023/06/03 14:13:55;;;;;;;4.88;1.20;;;;;;;;;;4985282;28;20026;-74
2023/06/03 14:16:26;;;;;;;4.63;1.37;;;;;;;;;;4984111;28;20077;-76
2023/06/03 14:18:51;;;;;;;2.05;0.93;;;;;;;;;;4986367;28;20076;-74
2023/06/03 14:21:16;;;;;;;9.67;1.60;;;;;;;;;;4986856;28;20097;-73
2023/06/03 14:23:41;;;;;;;3.42;1.10;;;;;;;;;;4989714;28;20319;-74
2023/06/03 14:26:06;;;;;;;4.33;1.03;;;;;;;;;;4989652;28;20030;-74
2023/06/03 14:28:32;;;;;;;7.20;1.27;;;;;;;;;;4986180;28;20154;-73
2023/06/03 14:30:57;;;;;;;5.70;0.90;;;;;;;;;;4987532;28;20350;-73
2023/06/03 14:33:24;;;;;;;6.85;1.17;;;;;;;;;;4982963;28;20039;-74
2023/06/03 14:35:49;;;;;;;3.05;0.80;;;;;;;;;;4984706;28;20022;-74
2023/06/03 14:38:15;;;;;;;3.67;1.25;;;;;;;;;;4981314;28;20061;-73